Maybeury, West Virginia
Current Conditions -  °F | °C
As of 12:52 AM on Friday 31 Oct 2014 (Local Time) from KBLF Reporting Station
Clear Clear  
Wind Chill: 32°   Ceiling: Unl
Heat Index: 36°   Visibility: 10mi
Dew Point: 30°   Wind: 5mph
Humidity: 79%   Direction: 140°SE
Pressure: 30.01"   Gusts: NA
Location:  37.37°N, 81.37°W
Report Text: KBLF 310452Z AUTO 14004KT 10SM CLR 02/M01 A3001 RMK AO2 SLP164 T00221011 401060022
Loading
Personal Weather Stations






























Interactive Weather Map
Tropical Storm Tracking
New forecast layout! Learn more

10-Day Weather Forecast

Advertisements
Track Severe Weather on mobile